sensor_id;sensor_type;location;lat;lon;timestamp;P1;durP1;ratioP1;P2;durP2;ratioP2
45676;SDS011;31390;51.186;6.830;2022-11-15T00:00:44;11.00;;;8.43;;
45676;SDS011;31390;51.186;6.830;2022-11-15T00:03:30;9.35;;;8.27;;
45676;SDS011;31390;51.186;6.830;2022-11-15T00:06:15;11.52;;;8.38;;
45676;SDS011;31390;51.186;6.830;2022-11-15T00:09:00;11.02;;;8.23;;
45676;SDS011;31390;51.186;6.830;2022-11-15T00:11:45;13.13;;;8.98;;
45676;SDS011;31390;51.186;6.830;2022-11-15T00:14:30;11.48;;;9.18;;
45676;SDS011;31390;51.186;6.830;2022-11-15T00:17:15;10.05;;;8.50;;
45676;SDS011;31390;51.186;6.830;2022-11-15T00:20:00;9.25;;;7.75;;
45676;SDS011;31390;51.186;6.830;2022-11-15T00:22:45;12.77;;;9.00;;
45676;SDS011;31390;51.186;6.830;2022-11-15T00:25:30;9.40;;;8.48;;
45676;SDS011;31390;51.186;6.830;2022-11-15T00:28:15;11.88;;;8.80;;
45676;SDS011;31390;51.186;6.830;2022-11-15T00:31:03;9.25;;;8.23;;
45676;SDS011;31390;51.186;6.830;2022-11-15T00:33:48;10.57;;;8.48;;
45676;SDS011;31390;51.186;6.830;2022-11-15T00:36:33;9.10;;;8.20;;
45676;SDS011;31390;51.186;6.830;2022-11-15T00:39:19;13.88;;;9.18;;
45676;SDS011;31390;51.186;6.830;2022-11-15T00:42:04;11.85;;;9.40;;
45676;SDS011;31390;51.186;6.830;2022-11-15T00:44:49;14.80;;;9.20;;
45676;SDS011;31390;51.186;6.830;2022-11-15T00:47:34;10.40;;;8.23;;
45676;SDS011;31390;51.186;6.830;2022-11-15T00:50:19;9.23;;;8.15;;
45676;SDS011;31390;51.186;6.830;2022-11-15T00:53:07;10.02;;;8.70;;
45676;SDS011;31390;51.186;6.830;2022-11-15T00:55:52;11.98;;;8.95;;
45676;SDS011;31390;51.186;6.830;2022-11-15T00:58:37;12.27;;;8.48;;
45676;SDS011;31390;51.186;6.830;2022-11-15T01:01:22;12.65;;;8.38;;
45676;SDS011;31390;51.186;6.830;2022-11-15T01:04:07;13.73;;;9.45;;
45676;SDS011;31390;51.186;6.830;2022-11-15T01:06:52;12.30;;;8.63;;
45676;SDS011;31390;51.186;6.830;2022-11-15T01:09:38;11.55;;;8.57;;
45676;SDS011;31390;51.186;6.830;2022-11-15T01:12:23;10.80;;;8.05;;
45676;SDS011;31390;51.186;6.830;2022-11-15T01:15:08;14.68;;;7.88;;
45676;SDS011;31390;51.186;6.830;2022-11-15T01:17:53;11.98;;;8.65;;
45676;SDS011;31390;51.186;6.830;2022-11-15T01:20:41;13.35;;;8.50;;
45676;SDS011;31390;51.186;6.830;2022-11-15T01:23:26;11.00;;;8.30;;
45676;SDS011;31390;51.186;6.830;2022-11-15T01:26:12;10.00;;;8.05;;
45676;SDS011;31390;51.186;6.830;2022-11-15T01:28:57;11.15;;;8.52;;
45676;SDS011;31390;51.186;6.830;2022-11-15T01:31:42;13.98;;;7.68;;
45676;SDS011;31390;51.186;6.830;2022-11-15T01:34:27;10.20;;;7.25;;
45676;SDS011;31390;51.186;6.830;2022-11-15T01:37:12;9.10;;;8.05;;
45676;SDS011;31390;51.186;6.830;2022-11-15T01:39:57;11.48;;;7.38;;
45676;SDS011;31390;51.186;6.830;2022-11-15T01:42:42;13.02;;;7.90;;
45676;SDS011;31390;51.186;6.830;2022-11-15T01:45:27;10.02;;;7.47;;
45676;SDS011;31390;51.186;6.830;2022-11-15T01:48:12;9.95;;;7.47;;
45676;SDS011;31390;51.186;6.830;2022-11-15T01:50:57;15.88;;;7.68;;
45676;SDS011;31390;51.186;6.830;2022-11-15T01:53:44;14.77;;;7.57;;
45676;SDS011;31390;51.186;6.830;2022-11-15T01:56:30;11.63;;;7.78;;
45676;SDS011;31390;51.186;6.830;2022-11-15T01:59:16;13.70;;;8.07;;
45676;SDS011;31390;51.186;6.830;2022-11-15T02:02:00;10.70;;;8.15;;
45676;SDS011;31390;51.186;6.830;2022-11-15T02:04:46;13.05;;;8.15;;
45676;SDS011;31390;51.186;6.830;2022-11-15T02:07:32;11.85;;;8.43;;
45676;SDS011;31390;51.186;6.830;2022-11-15T02:10:18;14.52;;;8.60;;
45676;SDS011;31390;51.186;6.830;2022-11-15T02:13:03;12.82;;;8.23;;
45676;SDS011;31390;51.186;6.830;2022-11-15T02:15:56;12.27;;;7.38;;
45676;SDS011;31390;51.186;6.830;2022-11-15T02:19:13;14.35;;;8.80;;
45676;SDS011;31390;51.186;6.830;2022-11-15T02:22:10;13.65;;;8.63;;
45676;SDS011;31390;51.186;6.830;2022-11-15T02:25:01;13.05;;;8.10;;
45676;SDS011;31390;51.186;6.830;2022-11-15T02:28:06;16.05;;;9.18;;
45676;SDS011;31390;51.186;6.830;2022-11-15T02:37:17;13.65;;;7.93;;
45676;SDS011;31390;51.186;6.830;2022-11-15T02:42:53;10.30;;;8.10;;
45676;SDS011;31390;51.186;6.830;2022-11-15T02:46:03;12.70;;;8.50;;
45676;SDS011;31390;51.186;6.830;2022-11-15T02:48:51;10.70;;;8.05;;
45676;SDS011;31390;51.186;6.830;2022-11-15T02:51:36;14.18;;;9.18;;
45676;SDS011;31390;51.186;6.830;2022-11-15T02:54:24;10.57;;;7.68;;
45676;SDS011;31390;51.186;6.830;2022-11-15T02:57:13;13.60;;;8.80;;
45676;SDS011;31390;51.186;6.830;2022-11-15T03:00:06;13.55;;;8.55;;
45676;SDS011;31390;51.186;6.830;2022-11-15T03:05:57;10.02;;;7.47;;
45676;SDS011;31390;51.186;6.830;2022-11-15T03:08:48;14.75;;;8.40;;
45676;SDS011;31390;51.186;6.830;2022-11-15T03:11:35;12.63;;;8.20;;
45676;SDS011;31390;51.186;6.830;2022-11-15T03:17:13;9.15;;;7.57;;
45676;SDS011;31390;51.186;6.830;2022-11-15T03:20:01;10.52;;;7.97;;
45676;SDS011;31390;51.186;6.830;2022-11-15T03:22:47;11.05;;;8.00;;
45676;SDS011;31390;51.186;6.830;2022-11-15T03:25:33;12.10;;;8.25;;
45676;SDS011;31390;51.186;6.830;2022-11-15T03:28:21;10.65;;;8.65;;
45676;SDS011;31390;51.186;6.830;2022-11-15T03:31:07;9.30;;;8.38;;
45676;SDS011;31390;51.186;6.830;2022-11-15T03:34:19;10.40;;;8.75;;
45676;SDS011;31390;51.186;6.830;2022-11-15T03:37:04;11.40;;;7.93;;
45676;SDS011;31390;51.186;6.830;2022-11-15T03:39:50;11.07;;;8.13;;
45676;SDS011;31390;51.186;6.830;2022-11-15T03:45:39;12.18;;;9.20;;
45676;SDS011;31390;51.186;6.830;2022-11-15T03:48:25;11.75;;;8.63;;
45676;SDS011;31390;51.186;6.830;2022-11-15T03:51:11;11.38;;;8.18;;
45676;SDS011;31390;51.186;6.830;2022-11-15T03:53:56;12.48;;;7.78;;
45676;SDS011;31390;51.186;6.830;2022-11-15T03:56:41;13.60;;;7.63;;
45676;SDS011;31390;51.186;6.830;2022-11-15T03:59:25;15.05;;;8.40;;
45676;SDS011;31390;51.186;6.830;2022-11-15T04:02:11;13.73;;;8.40;;
45676;SDS011;31390;51.186;6.830;2022-11-15T04:04:56;12.32;;;7.47;;
45676;SDS011;31390;51.186;6.830;2022-11-15T04:07:41;11.45;;;8.02;;
45676;SDS011;31390;51.186;6.830;2022-11-15T04:10:26;10.05;;;7.60;;
45676;SDS011;31390;51.186;6.830;2022-11-15T04:13:11;8.00;;;7.20;;
45676;SDS011;31390;51.186;6.830;2022-11-15T04:15:56;7.85;;;7.10;;
45676;SDS011;31390;51.186;6.830;2022-11-15T04:18:41;9.25;;;7.47;;
45676;SDS011;31390;51.186;6.830;2022-11-15T04:21:26;8.95;;;6.72;;
45676;SDS011;31390;51.186;6.830;2022-11-15T04:24:46;8.82;;;7.43;;
45676;SDS011;31390;51.186;6.830;2022-11-15T04:27:32;10.35;;;6.75;;
45676;SDS011;31390;51.186;6.830;2022-11-15T04:30:16;7.25;;;6.57;;
45676;SDS011;31390;51.186;6.830;2022-11-15T04:33:01;9.75;;;7.38;;
45676;SDS011;31390;51.186;6.830;2022-11-15T04:35:47;8.25;;;7.40;;
45676;SDS011;31390;51.186;6.830;2022-11-15T04:38:51;8.77;;;7.88;;
45676;SDS011;31390;51.186;6.830;2022-11-15T04:41:36;11.98;;;8.68;;
45676;SDS011;31390;51.186;6.830;2022-11-15T04:44:21;10.35;;;8.75;;
45676;SDS011;31390;51.186;6.830;2022-11-15T04:47:06;9.60;;;8.18;;
45676;SDS011;31390;51.186;6.830;2022-11-15T04:49:51;10.07;;;9.05;;
45676;SDS011;31390;51.186;6.830;2022-11-15T04:52:36;10.63;;;9.55;;
45676;SDS011;31390;51.186;6.830;2022-11-15T04:55:21;9.85;;;8.95;;
45676;SDS011;31390;51.186;6.830;2022-11-15T04:58:06;10.25;;;9.25;;
45676;SDS011;31390;51.186;6.830;2022-11-15T05:00:51;11.07;;;9.80;;
45676;SDS011;31390;51.186;6.830;2022-11-15T05:03:36;9.73;;;8.82;;
45676;SDS011;31390;51.186;6.830;2022-11-15T05:06:40;10.48;;;8.40;;
45676;SDS011;31390;51.186;6.830;2022-11-15T05:09:25;8.80;;;8.00;;
45676;SDS011;31390;51.186;6.830;2022-11-15T05:12:10;9.18;;;8.27;;
45676;SDS011;31390;51.186;6.830;2022-11-15T05:14:55;9.82;;;8.57;;
45676;SDS011;31390;51.186;6.830;2022-11-15T05:17:39;8.82;;;7.93;;
45676;SDS011;31390;51.186;6.830;2022-11-15T05:20:24;9.50;;;8.35;;
45676;SDS011;31390;51.186;6.830;2022-11-15T05:23:09;9.55;;;8.57;;
45676;SDS011;31390;51.186;6.830;2022-11-15T05:25:58;9.35;;;8.45;;
45676;SDS011;31390;51.186;6.830;2022-11-15T05:28:43;8.38;;;7.35;;
45676;SDS011;31390;51.186;6.830;2022-11-15T05:31:28;8.43;;;7.63;;
45676;SDS011;31390;51.186;6.830;2022-11-15T05:34:13;10.88;;;9.77;;
45676;SDS011;31390;51.186;6.830;2022-11-15T05:36:58;9.60;;;7.90;;
45676;SDS011;31390;51.186;6.830;2022-11-15T05:39:43;10.88;;;9.00;;
45676;SDS011;31390;51.186;6.830;2022-11-15T05:42:28;8.55;;;7.75;;
45676;SDS011;31390;51.186;6.830;2022-11-15T05:45:14;21.60;;;15.02;;
45676;SDS011;31390;51.186;6.830;2022-11-15T05:47:59;11.95;;;7.78;;
45676;SDS011;31390;51.186;6.830;2022-11-15T05:50:46;23.33;;;18.52;;
45676;SDS011;31390;51.186;6.830;2022-11-15T05:53:32;13.10;;;11.80;;
45676;SDS011;31390;51.186;6.830;2022-11-15T05:56:18;12.98;;;10.93;;
45676;SDS011;31390;51.186;6.830;2022-11-15T05:59:03;10.10;;;9.10;;
45676;SDS011;31390;51.186;6.830;2022-11-15T06:01:48;6.90;;;6.20;;
45676;SDS011;31390;51.186;6.830;2022-11-15T06:04:34;7.65;;;6.90;;
45676;SDS011;31390;51.186;6.830;2022-11-15T06:07:19;7.57;;;6.88;;
45676;SDS011;31390;51.186;6.830;2022-11-15T06:10:04;7.07;;;6.38;;
45676;SDS011;31390;51.186;6.830;2022-11-15T06:12:56;6.30;;;5.80;;
45676;SDS011;31390;51.186;6.830;2022-11-15T06:15:41;6.07;;;5.50;;
45676;SDS011;31390;51.186;6.830;2022-11-15T06:18:26;5.90;;;5.40;;
45676;SDS011;31390;51.186;6.830;2022-11-15T06:21:11;7.32;;;6.65;;
45676;SDS011;31390;51.186;6.830;2022-11-15T06:23:56;8.65;;;7.78;;
45676;SDS011;31390;51.186;6.830;2022-11-15T06:26:41;5.78;;;5.22;;
45676;SDS011;31390;51.186;6.830;2022-11-15T06:29:26;5.43;;;4.93;;
45676;SDS011;31390;51.186;6.830;2022-11-15T06:32:10;5.38;;;4.88;;
45676;SDS011;31390;51.186;6.830;2022-11-15T06:34:55;5.15;;;4.70;;
45676;SDS011;31390;51.186;6.830;2022-11-15T06:37:41;4.90;;;4.43;;
45676;SDS011;31390;51.186;6.830;2022-11-15T06:40:26;6.18;;;4.72;;
45676;SDS011;31390;51.186;6.830;2022-11-15T06:43:12;4.38;;;4.03;;
45676;SDS011;31390;51.186;6.830;2022-11-15T06:46:02;4.88;;;4.47;;
45676;SDS011;31390;51.186;6.830;2022-11-15T06:48:49;5.55;;;4.95;;
45676;SDS011;31390;51.186;6.830;2022-11-15T06:51:36;7.50;;;6.72;;
45676;SDS011;31390;51.186;6.830;2022-11-15T06:54:21;17.25;;;13.70;;
45676;SDS011;31390;51.186;6.830;2022-11-15T06:57:21;6.32;;;5.72;;
45676;SDS011;31390;51.186;6.830;2022-11-15T07:00:06;5.43;;;4.95;;
45676;SDS011;31390;51.186;6.830;2022-11-15T07:02:52;4.78;;;4.38;;
45676;SDS011;31390;51.186;6.830;2022-11-15T07:05:37;4.72;;;4.28;;
45676;SDS011;31390;51.186;6.830;2022-11-15T07:08:22;4.63;;;4.22;;
45676;SDS011;31390;51.186;6.830;2022-11-15T07:11:07;5.38;;;4.47;;
45676;SDS011;31390;51.186;6.830;2022-11-15T07:13:53;5.05;;;3.58;;
45676;SDS011;31390;51.186;6.830;2022-11-15T07:16:38;3.97;;;3.58;;
45676;SDS011;31390;51.186;6.830;2022-11-15T07:19:23;3.38;;;2.95;;
45676;SDS011;31390;51.186;6.830;2022-11-15T07:22:07;3.90;;;3.50;;
45676;SDS011;31390;51.186;6.830;2022-11-15T07:24:53;3.65;;;3.20;;
45676;SDS011;31390;51.186;6.830;2022-11-15T07:27:38;4.53;;;3.25;;
45676;SDS011;31390;51.186;6.830;2022-11-15T07:30:24;4.38;;;3.00;;
45676;SDS011;31390;51.186;6.830;2022-11-15T07:33:09;4.15;;;3.38;;
45676;SDS011;31390;51.186;6.830;2022-11-15T07:35:57;4.18;;;3.03;;
45676;SDS011;31390;51.186;6.830;2022-11-15T07:38:42;3.33;;;3.03;;
45676;SDS011;31390;51.186;6.830;2022-11-15T07:41:28;3.25;;;2.88;;
45676;SDS011;31390;51.186;6.830;2022-11-15T07:44:13;3.35;;;2.97;;
45676;SDS011;31390;51.186;6.830;2022-11-15T07:46:58;4.25;;;3.20;;
45676;SDS011;31390;51.186;6.830;2022-11-15T07:49:43;4.60;;;3.20;;
45676;SDS011;31390;51.186;6.830;2022-11-15T07:52:28;4.20;;;2.92;;
45676;SDS011;31390;51.186;6.830;2022-11-15T07:55:13;3.33;;;3.00;;
45676;SDS011;31390;51.186;6.830;2022-11-15T07:58:01;3.30;;;3.00;;
45676;SDS011;31390;51.186;6.830;2022-11-15T08:00:47;3.10;;;2.60;;
45676;SDS011;31390;51.186;6.830;2022-11-15T08:03:32;2.70;;;2.50;;
45676;SDS011;31390;51.186;6.830;2022-11-15T08:06:18;3.75;;;2.40;;
45676;SDS011;31390;51.186;6.830;2022-11-15T08:09:03;2.90;;;2.70;;
45676;SDS011;31390;51.186;6.830;2022-11-15T08:11:48;2.58;;;2.35;;
45676;SDS011;31390;51.186;6.830;2022-11-15T08:14:34;3.05;;;2.60;;
45676;SDS011;31390;51.186;6.830;2022-11-15T08:17:21;2.85;;;2.40;;
45676;SDS011;31390;51.186;6.830;2022-11-15T08:20:09;2.55;;;2.25;;
45676;SDS011;31390;51.186;6.830;2022-11-15T08:22:58;3.67;;;2.30;;
45676;SDS011;31390;51.186;6.830;2022-11-15T08:25:43;4.03;;;2.47;;
45676;SDS011;31390;51.186;6.830;2022-11-15T08:28:29;3.78;;;2.13;;
45676;SDS011;31390;51.186;6.830;2022-11-15T08:31:15;2.38;;;2.17;;
45676;SDS011;31390;51.186;6.830;2022-11-15T08:34:02;2.60;;;2.40;;
45676;SDS011;31390;51.186;6.830;2022-11-15T08:36:47;3.55;;;2.80;;
45676;SDS011;31390;51.186;6.830;2022-11-15T08:39:31;2.83;;;2.50;;
45676;SDS011;31390;51.186;6.830;2022-11-15T08:42:16;2.47;;;2.10;;
45676;SDS011;31390;51.186;6.830;2022-11-15T08:45:04;2.63;;;2.40;;
45676;SDS011;31390;51.186;6.830;2022-11-15T08:47:49;3.83;;;2.20;;
45676;SDS011;31390;51.186;6.830;2022-11-15T08:50:38;5.53;;;2.60;;
45676;SDS011;31390;51.186;6.830;2022-11-15T08:53:23;3.45;;;2.85;;
45676;SDS011;31390;51.186;6.830;2022-11-15T08:56:09;2.47;;;2.28;;
45676;SDS011;31390;51.186;6.830;2022-11-15T08:58:55;3.75;;;2.53;;
45676;SDS011;31390;51.186;6.830;2022-11-15T09:01:40;2.50;;;2.10;;
45676;SDS011;31390;51.186;6.830;2022-11-15T09:04:28;2.60;;;2.20;;
45676;SDS011;31390;51.186;6.830;2022-11-15T09:07:13;5.68;;;2.13;;
45676;SDS011;31390;51.186;6.830;2022-11-15T09:10:02;3.15;;;2.00;;
45676;SDS011;31390;51.186;6.830;2022-11-15T09:12:49;3.30;;;2.53;;
45676;SDS011;31390;51.186;6.830;2022-11-15T09:15:34;2.50;;;1.75;;
45676;SDS011;31390;51.186;6.830;2022-11-15T09:18:19;2.08;;;1.55;;
45676;SDS011;31390;51.186;6.830;2022-11-15T09:21:07;3.38;;;2.00;;
45676;SDS011;31390;51.186;6.830;2022-11-15T09:23:52;1.80;;;1.60;;
45676;SDS011;31390;51.186;6.830;2022-11-15T09:26:38;2.20;;;2.00;;
45676;SDS011;31390;51.186;6.830;2022-11-15T09:29:23;2.55;;;1.80;;
45676;SDS011;31390;51.186;6.830;2022-11-15T09:32:08;2.28;;;1.73;;
45676;SDS011;31390;51.186;6.830;2022-11-15T09:34:53;4.10;;;1.90;;
45676;SDS011;31390;51.186;6.830;2022-11-15T09:37:38;2.03;;;1.80;;
45676;SDS011;31390;51.186;6.830;2022-11-15T09:40:23;2.33;;;1.65;;
45676;SDS011;31390;51.186;6.830;2022-11-15T09:46:03;2.55;;;1.15;;
45676;SDS011;31390;51.186;6.830;2022-11-15T09:49:00;4.30;;;1.20;;
45676;SDS011;31390;51.186;6.830;2022-11-15T09:51:39;2.85;;;1.50;;
45676;SDS011;31390;51.186;6.830;2022-11-15T10:03:10;2.22;;;1.77;;
45676;SDS011;31390;51.186;6.830;2022-11-15T10:05:42;3.97;;;1.95;;
45676;SDS011;31390;51.186;6.830;2022-11-15T10:08:16;2.83;;;1.83;;
45676;SDS011;31390;51.186;6.830;2022-11-15T10:10:47;1.90;;;1.10;;
45676;SDS011;31390;51.186;6.830;2022-11-15T10:13:24;1.77;;;1.05;;
45676;SDS011;31390;51.186;6.830;2022-11-15T10:15:51;2.35;;;1.50;;
45676;SDS011;31390;51.186;6.830;2022-11-15T10:18:24;2.63;;;1.20;;
45676;SDS011;31390;51.186;6.830;2022-11-15T10:21:00;4.30;;;1.42;;
45676;SDS011;31390;51.186;6.830;2022-11-15T10:23:28;1.40;;;1.02;;
45676;SDS011;31390;51.186;6.830;2022-11-15T10:25:58;3.00;;;1.20;;
45676;SDS011;31390;51.186;6.830;2022-11-15T10:28:32;3.80;;;1.10;;
45676;SDS011;31390;51.186;6.830;2022-11-15T10:30:59;1.98;;;0.90;;
45676;SDS011;31390;51.186;6.830;2022-11-15T10:33:36;1.67;;;0.90;;
45676;SDS011;31390;51.186;6.830;2022-11-15T10:41:21;2.70;;;1.30;;
45676;SDS011;31390;51.186;6.830;2022-11-15T10:44:08;11.30;;;1.35;;
45676;SDS011;31390;51.186;6.830;2022-11-15T10:46:37;1.30;;;0.90;;
45676;SDS011;31390;51.186;6.830;2022-11-15T10:49:17;1.13;;;0.90;;
45676;SDS011;31390;51.186;6.830;2022-11-15T10:54:10;1.35;;;1.00;;
45676;SDS011;31390;51.186;6.830;2022-11-15T10:56:48;1.67;;;1.17;;
45676;SDS011;31390;51.186;6.830;2022-11-15T10:59:16;2.03;;;1.17;;
45676;SDS011;31390;51.186;6.830;2022-11-15T11:01:45;2.20;;;1.00;;
45676;SDS011;31390;51.186;6.830;2022-11-15T11:04:12;2.15;;;1.00;;
45676;SDS011;31390;51.186;6.830;2022-11-15T11:06:49;3.53;;;1.00;;
45676;SDS011;31390;51.186;6.830;2022-11-15T11:11:59;2.72;;;0.98;;
45676;SDS011;31390;51.186;6.830;2022-11-15T11:14:27;1.75;;;0.82;;
45676;SDS011;31390;51.186;6.830;2022-11-15T11:25:15;1.45;;;0.95;;
45676;SDS011;31390;51.186;6.830;2022-11-15T11:38:24;3.50;;;0.98;;
45676;SDS011;31390;51.186;6.830;2022-11-15T11:43:34;1.67;;;0.70;;
45676;SDS011;31390;51.186;6.830;2022-11-15T11:48:50;1.42;;;0.82;;
45676;SDS011;31390;51.186;6.830;2022-11-15T11:51:23;3.65;;;1.00;;
45676;SDS011;31390;51.186;6.830;2022-11-15T11:53:52;2.08;;;1.08;;
45676;SDS011;31390;51.186;6.830;2022-11-15T11:56:31;4.82;;;1.17;;
45676;SDS011;31390;51.186;6.830;2022-11-15T11:59:05;2.25;;;0.70;;
45676;SDS011;31390;51.186;6.830;2022-11-15T12:01:39;3.00;;;1.02;;
45676;SDS011;31390;51.186;6.830;2022-11-15T12:09:30;1.35;;;0.70;;
45676;SDS011;31390;51.186;6.830;2022-11-15T12:14:32;1.85;;;0.80;;
45676;SDS011;31390;51.186;6.830;2022-11-15T12:16:59;3.97;;;0.90;;
45676;SDS011;31390;51.186;6.830;2022-11-15T12:19:26;2.13;;;1.00;;
45676;SDS011;31390;51.186;6.830;2022-11-15T12:22:13;2.72;;;1.17;;
45676;SDS011;31390;51.186;6.830;2022-11-15T12:24:55;3.95;;;1.13;;
45676;SDS011;31390;51.186;6.830;2022-11-15T12:29:54;4.60;;;0.93;;
45676;SDS011;31390;51.186;6.830;2022-11-15T12:32:26;1.20;;;0.70;;
45676;SDS011;31390;51.186;6.830;2022-11-15T12:34:56;2.40;;;1.15;;
45676;SDS011;31390;51.186;6.830;2022-11-15T12:44:57;3.53;;;1.40;;
45676;SDS011;31390;51.186;6.830;2022-11-15T12:47:25;2.63;;;0.85;;
45676;SDS011;31390;51.186;6.830;2022-11-15T12:49:52;2.30;;;0.88;;
45676;SDS011;31390;51.186;6.830;2022-11-15T12:52:19;5.30;;;1.02;;
45676;SDS011;31390;51.186;6.830;2022-11-15T12:54:50;3.65;;;0.93;;
45676;SDS011;31390;51.186;6.830;2022-11-15T12:59:47;3.45;;;0.98;;
45676;SDS011;31390;51.186;6.830;2022-11-15T13:02:22;3.03;;;0.90;;
45676;SDS011;31390;51.186;6.830;2022-11-15T13:04:51;1.23;;;0.65;;
45676;SDS011;31390;51.186;6.830;2022-11-15T13:17:44;1.65;;;0.77;;
45676;SDS011;31390;51.186;6.830;2022-11-15T13:22:38;2.55;;;0.98;;
45676;SDS011;31390;51.186;6.830;2022-11-15T13:28:03;2.03;;;1.08;;
45676;SDS011;31390;51.186;6.830;2022-11-15T13:30:35;3.20;;;1.05;;
45676;SDS011;31390;51.186;6.830;2022-11-15T13:33:22;1.10;;;0.80;;
45676;SDS011;31390;51.186;6.830;2022-11-15T13:35:50;1.70;;;0.73;;
45676;SDS011;31390;51.186;6.830;2022-11-15T13:38:28;1.88;;;1.00;;
45676;SDS011;31390;51.186;6.830;2022-11-15T13:40:57;1.75;;;0.90;;
45676;SDS011;31390;51.186;6.830;2022-11-15T13:48:33;3.80;;;1.40;;
45676;SDS011;31390;51.186;6.830;2022-11-15T13:51:02;3.30;;;1.10;;
45676;SDS011;31390;51.186;6.830;2022-11-15T13:53:31;3.55;;;1.30;;
45676;SDS011;31390;51.186;6.830;2022-11-15T13:55:58;3.70;;;1.23;;
45676;SDS011;31390;51.186;6.830;2022-11-15T13:58:26;2.63;;;1.10;;
45676;SDS011;31390;51.186;6.830;2022-11-15T14:01:00;3.83;;;1.30;;
45676;SDS011;31390;51.186;6.830;2022-11-15T14:03:28;3.90;;;1.50;;
45676;SDS011;31390;51.186;6.830;2022-11-15T14:06:12;4.65;;;1.83;;
45676;SDS011;31390;51.186;6.830;2022-11-15T14:08:39;3.40;;;1.55;;
45676;SDS011;31390;51.186;6.830;2022-11-15T14:13:33;5.88;;;2.05;;
45676;SDS011;31390;51.186;6.830;2022-11-15T14:16:17;4.03;;;1.70;;
45676;SDS011;31390;51.186;6.830;2022-11-15T14:18:45;4.03;;;2.15;;
45676;SDS011;31390;51.186;6.830;2022-11-15T14:21:12;3.42;;;1.70;;
45676;SDS011;31390;51.186;6.830;2022-11-15T14:23:39;4.50;;;1.90;;
45676;SDS011;31390;51.186;6.830;2022-11-15T14:26:05;5.18;;;2.53;;
45676;SDS011;31390;51.186;6.830;2022-11-15T14:28:37;4.63;;;2.58;;
45676;SDS011;31390;51.186;6.830;2022-11-15T14:31:10;3.53;;;1.90;;
45676;SDS011;31390;51.186;6.830;2022-11-15T14:33:38;3.30;;;1.80;;
45676;SDS011;31390;51.186;6.830;2022-11-15T14:38:31;4.18;;;2.88;;
45676;SDS011;31390;51.186;6.830;2022-11-15T14:40:59;4.38;;;2.45;;
45676;SDS011;31390;51.186;6.830;2022-11-15T14:43:25;4.60;;;2.65;;
45676;SDS011;31390;51.186;6.830;2022-11-15T14:45:52;4.40;;;2.58;;
45676;SDS011;31390;51.186;6.830;2022-11-15T14:48:19;4.85;;;2.75;;
45676;SDS011;31390;51.186;6.830;2022-11-15T14:50:45;4.03;;;2.53;;
45676;SDS011;31390;51.186;6.830;2022-11-15T14:53:13;8.40;;;2.42;;
45676;SDS011;31390;51.186;6.830;2022-11-15T14:55:41;4.93;;;2.40;;
45676;SDS011;31390;51.186;6.830;2022-11-15T14:58:08;3.97;;;2.63;;
45676;SDS011;31390;51.186;6.830;2022-11-15T15:00:35;5.40;;;2.50;;
45676;SDS011;31390;51.186;6.830;2022-11-15T15:03:02;3.45;;;2.55;;
45676;SDS011;31390;51.186;6.830;2022-11-15T15:05:36;3.20;;;2.50;;
45676;SDS011;31390;51.186;6.830;2022-11-15T15:08:03;3.47;;;2.38;;
45676;SDS011;31390;51.186;6.830;2022-11-15T15:10:34;7.05;;;2.72;;
45676;SDS011;31390;51.186;6.830;2022-11-15T15:13:17;3.80;;;2.60;;
45676;SDS011;31390;51.186;6.830;2022-11-15T15:15:44;4.70;;;2.30;;
45676;SDS011;31390;51.186;6.830;2022-11-15T15:18:10;3.22;;;2.63;;
45676;SDS011;31390;51.186;6.830;2022-11-15T15:20:38;5.30;;;2.90;;
45676;SDS011;31390;51.186;6.830;2022-11-15T15:23:07;4.07;;;2.35;;
45676;SDS011;31390;51.186;6.830;2022-11-15T15:25:36;3.45;;;2.42;;
45676;SDS011;31390;51.186;6.830;2022-11-15T15:28:02;5.15;;;2.30;;
45676;SDS011;31390;51.186;6.830;2022-11-15T15:30:29;3.33;;;2.78;;
45676;SDS011;31390;51.186;6.830;2022-11-15T15:32:56;3.05;;;2.40;;
45676;SDS011;31390;51.186;6.830;2022-11-15T15:35:23;3.25;;;2.45;;
45676;SDS011;31390;51.186;6.830;2022-11-15T15:37:51;4.10;;;2.50;;
45676;SDS011;31390;51.186;6.830;2022-11-15T15:40:19;4.88;;;2.40;;
45676;SDS011;31390;51.186;6.830;2022-11-15T15:42:46;5.00;;;2.40;;
45676;SDS011;31390;51.186;6.830;2022-11-15T15:45:13;3.35;;;2.03;;
45676;SDS011;31390;51.186;6.830;2022-11-15T15:47:41;3.03;;;1.92;;
45676;SDS011;31390;51.186;6.830;2022-11-15T15:52:40;2.58;;;1.95;;
45676;SDS011;31390;51.186;6.830;2022-11-15T15:55:07;2.88;;;2.20;;
45676;SDS011;31390;51.186;6.830;2022-11-15T15:57:33;4.47;;;2.88;;
45676;SDS011;31390;51.186;6.830;2022-11-15T16:00:00;4.80;;;2.55;;
45676;SDS011;31390;51.186;6.830;2022-11-15T16:02:37;4.15;;;2.92;;
45676;SDS011;31390;51.186;6.830;2022-11-15T16:05:06;3.40;;;2.30;;
45676;SDS011;31390;51.186;6.830;2022-11-15T16:07:33;4.85;;;2.58;;
45676;SDS011;31390;51.186;6.830;2022-11-15T16:10:00;4.88;;;2.50;;
45676;SDS011;31390;51.186;6.830;2022-11-15T16:12:27;3.53;;;2.40;;
45676;SDS011;31390;51.186;6.830;2022-11-15T16:14:54;4.40;;;2.15;;
45676;SDS011;31390;51.186;6.830;2022-11-15T16:17:21;3.30;;;2.33;;
45676;SDS011;31390;51.186;6.830;2022-11-15T16:19:48;2.88;;;2.30;;
45676;SDS011;31390;51.186;6.830;2022-11-15T16:22:15;5.63;;;2.40;;
45676;SDS011;31390;51.186;6.830;2022-11-15T16:24:41;3.25;;;2.20;;
45676;SDS011;31390;51.186;6.830;2022-11-15T16:27:15;2.83;;;2.00;;
45676;SDS011;31390;51.186;6.830;2022-11-15T16:29:42;3.28;;;2.50;;
45676;SDS011;31390;51.186;6.830;2022-11-15T16:32:09;5.15;;;2.85;;
45676;SDS011;31390;51.186;6.830;2022-11-15T16:34:36;5.82;;;2.72;;
45676;SDS011;31390;51.186;6.830;2022-11-15T16:37:29;5.30;;;3.03;;
45676;SDS011;31390;51.186;6.830;2022-11-15T16:39:54;3.20;;;2.15;;
45676;SDS011;31390;51.186;6.830;2022-11-15T16:42:26;5.13;;;2.50;;
45676;SDS011;31390;51.186;6.830;2022-11-15T16:44:52;6.30;;;2.85;;
45676;SDS011;31390;51.186;6.830;2022-11-15T16:47:19;5.63;;;2.80;;
45676;SDS011;31390;51.186;6.830;2022-11-15T16:49:45;2.60;;;1.83;;
45676;SDS011;31390;51.186;6.830;2022-11-15T16:52:12;2.45;;;2.22;;
45676;SDS011;31390;51.186;6.830;2022-11-15T16:54:45;3.05;;;2.00;;
45676;SDS011;31390;51.186;6.830;2022-11-15T16:57:12;4.18;;;2.30;;
45676;SDS011;31390;51.186;6.830;2022-11-15T16:59:38;3.28;;;2.53;;
45676;SDS011;31390;51.186;6.830;2022-11-15T17:02:09;4.72;;;2.45;;
45676;SDS011;31390;51.186;6.830;2022-11-15T17:04:37;3.67;;;1.92;;
45676;SDS011;31390;51.186;6.830;2022-11-15T17:07:04;3.80;;;2.30;;
45676;SDS011;31390;51.186;6.830;2022-11-15T17:09:30;3.08;;;2.30;;
45676;SDS011;31390;51.186;6.830;2022-11-15T17:11:58;3.75;;;2.83;;
45676;SDS011;31390;51.186;6.830;2022-11-15T17:14:24;3.58;;;2.30;;
45676;SDS011;31390;51.186;6.830;2022-11-15T17:16:51;3.78;;;2.25;;
45676;SDS011;31390;51.186;6.830;2022-11-15T17:19:18;2.72;;;2.17;;
45676;SDS011;31390;51.186;6.830;2022-11-15T17:21:45;2.88;;;2.40;;
45676;SDS011;31390;51.186;6.830;2022-11-15T17:24:12;4.53;;;2.58;;
45676;SDS011;31390;51.186;6.830;2022-11-15T17:26:39;2.38;;;2.00;;
45676;SDS011;31390;51.186;6.830;2022-11-15T17:29:06;3.38;;;1.80;;
45676;SDS011;31390;51.186;6.830;2022-11-15T17:31:36;4.53;;;1.80;;
45676;SDS011;31390;51.186;6.830;2022-11-15T17:34:04;3.88;;;2.00;;
45676;SDS011;31390;51.186;6.830;2022-11-15T17:36:31;2.42;;;2.00;;
45676;SDS011;31390;51.186;6.830;2022-11-15T17:38:57;3.40;;;1.90;;
45676;SDS011;31390;51.186;6.830;2022-11-15T17:41:25;3.13;;;1.70;;
45676;SDS011;31390;51.186;6.830;2022-11-15T17:43:52;3.28;;;2.10;;
45676;SDS011;31390;51.186;6.830;2022-11-15T17:46:20;1.92;;;1.55;;
45676;SDS011;31390;51.186;6.830;2022-11-15T17:48:47;2.17;;;1.58;;